sensor_id;sensor_type;location;lat;lon;timestamp;temperature;humidity
56256;DHT22;57229;51.432;-2.598;2023-02-01T00:00:12;12.20;99.90
56256;DHT22;57229;51.432;-2.598;2023-02-01T00:02:38;12.20;99.90
56256;DHT22;57229;51.432;-2.598;2023-02-01T00:05:08;12.20;99.90
56256;DHT22;57229;51.432;-2.598;2023-02-01T00:07:34;12.20;99.90
56256;DHT22;57229;51.432;-2.598;2023-02-01T00:10:00;12.20;99.90
56256;DHT22;57229;51.432;-2.598;2023-02-01T00:12:25;12.20;99.90
56256;DHT22;57229;51.432;-2.598;2023-02-01T00:14:51;12.20;99.90
56256;DHT22;57229;51.432;-2.598;2023-02-01T00:17:17;12.20;99.90
56256;DHT22;57229;51.432;-2.598;2023-02-01T00:19:43;12.10;99.90
56256;DHT22;57229;51.432;-2.598;2023-02-01T00:22:08;12.20;99.90
56256;DHT22;57229;51.432;-2.598;2023-02-01T00:24:34;12.20;99.90
56256;DHT22;57229;51.432;-2.598;2023-02-01T00:27:00;12.10;99.90
56256;DHT22;57229;51.432;-2.598;2023-02-01T00:29:25;12.10;99.90
56256;DHT22;57229;51.432;-2.598;2023-02-01T00:31:51;12.10;99.90
56256;DHT22;57229;51.432;-2.598;2023-02-01T00:34:17;12.10;99.90
56256;DHT22;57229;51.432;-2.598;2023-02-01T00:36:44;12.10;99.90
56256;DHT22;57229;51.432;-2.598;2023-02-01T00:39:11;12.10;99.90
56256;DHT22;57229;51.432;-2.598;2023-02-01T00:41:37;12.10;99.90
56256;DHT22;57229;51.432;-2.598;2023-02-01T00:44:03;12.10;99.90
56256;DHT22;57229;51.432;-2.598;2023-02-01T00:46:29;12.10;99.90
56256;DHT22;57229;51.432;-2.598;2023-02-01T00:48:55;12.10;99.90
56256;DHT22;57229;51.432;-2.598;2023-02-01T00:51:23;12.10;99.90
56256;DHT22;57229;51.432;-2.598;2023-02-01T00:53:50;12.10;99.90
56256;DHT22;57229;51.432;-2.598;2023-02-01T00:56:16;12.10;99.90
56256;DHT22;57229;51.432;-2.598;2023-02-01T00:58:42;12.10;99.90
56256;DHT22;57229;51.432;-2.598;2023-02-01T01:01:20;12.10;99.90
56256;DHT22;57229;51.432;-2.598;2023-02-01T01:04:06;12.10;99.90
56256;DHT22;57229;51.432;-2.598;2023-02-01T01:06:33;12.10;99.90
56256;DHT22;57229;51.432;-2.598;2023-02-01T01:09:01;12.10;99.90
56256;DHT22;57229;51.432;-2.598;2023-02-01T01:11:29;12.10;99.90
56256;DHT22;57229;51.432;-2.598;2023-02-01T01:13:57;12.10;99.90
56256;DHT22;57229;51.432;-2.598;2023-02-01T01:16:25;12.10;99.90
56256;DHT22;57229;51.432;-2.598;2023-02-01T01:18:51;12.10;99.90
56256;DHT22;57229;51.432;-2.598;2023-02-01T01:21:17;12.10;99.90
56256;DHT22;57229;51.432;-2.598;2023-02-01T01:23:44;12.10;99.90
56256;DHT22;57229;51.432;-2.598;2023-02-01T01:26:20;12.10;99.90
56256;DHT22;57229;51.432;-2.598;2023-02-01T01:28:46;12.10;99.90
56256;DHT22;57229;51.432;-2.598;2023-02-01T01:31:14;12.10;99.90
56256;DHT22;57229;51.432;-2.598;2023-02-01T01:33:40;12.10;99.90
56256;DHT22;57229;51.432;-2.598;2023-02-01T01:36:07;12.10;99.90
56256;DHT22;57229;51.432;-2.598;2023-02-01T01:38:35;12.10;99.90
56256;DHT22;57229;51.432;-2.598;2023-02-01T01:41:01;12.10;99.90
56256;DHT22;57229;51.432;-2.598;2023-02-01T01:46:23;12.10;99.90
56256;DHT22;57229;51.432;-2.598;2023-02-01T01:51:48;12.00;99.90
56256;DHT22;57229;51.432;-2.598;2023-02-01T01:57:01;12.00;99.90
56256;DHT22;57229;51.432;-2.598;2023-02-01T01:59:27;12.00;99.90
56256;DHT22;57229;51.432;-2.598;2023-02-01T02:01:54;12.00;99.90
56256;DHT22;57229;51.432;-2.598;2023-02-01T02:04:21;12.00;99.90
56256;DHT22;57229;51.432;-2.598;2023-02-01T02:06:54;12.00;99.90
56256;DHT22;57229;51.432;-2.598;2023-02-01T02:09:21;12.00;99.90
56256;DHT22;57229;51.432;-2.598;2023-02-01T02:11:47;12.00;99.90
56256;DHT22;57229;51.432;-2.598;2023-02-01T02:14:15;12.00;99.90
56256;DHT22;57229;51.432;-2.598;2023-02-01T02:17:07;12.00;99.90
56256;DHT22;57229;51.432;-2.598;2023-02-01T02:22:58;12.00;99.90
56256;DHT22;57229;51.432;-2.598;2023-02-01T02:47:37;11.90;99.90
56256;DHT22;57229;51.432;-2.598;2023-02-01T02:50:18;11.90;99.90
56256;DHT22;57229;51.432;-2.598;2023-02-01T02:53:17;12.00;99.90
56256;DHT22;57229;51.432;-2.598;2023-02-01T02:56:05;11.90;99.90
56256;DHT22;57229;51.432;-2.598;2023-02-01T02:58:50;11.90;99.90
56256;DHT22;57229;51.432;-2.598;2023-02-01T03:01:36;11.90;99.90
56256;DHT22;57229;51.432;-2.598;2023-02-01T03:04:21;11.90;99.90
56256;DHT22;57229;51.432;-2.598;2023-02-01T03:06:49;11.90;99.90
56256;DHT22;57229;51.432;-2.598;2023-02-01T03:09:36;11.90;99.90
56256;DHT22;57229;51.432;-2.598;2023-02-01T03:12:09;11.90;99.90
56256;DHT22;57229;51.432;-2.598;2023-02-01T03:15:00;11.90;99.90
56256;DHT22;57229;51.432;-2.598;2023-02-01T03:17:31;11.90;99.90
56256;DHT22;57229;51.432;-2.598;2023-02-01T03:20:01;11.90;99.90
56256;DHT22;57229;51.432;-2.598;2023-02-01T03:22:28;11.90;99.90
56256;DHT22;57229;51.432;-2.598;2023-02-01T03:25:05;11.90;99.90
56256;DHT22;57229;51.432;-2.598;2023-02-01T03:27:37;11.80;99.90
56256;DHT22;57229;51.432;-2.598;2023-02-01T03:30:21;11.80;99.90
56256;DHT22;57229;51.432;-2.598;2023-02-01T03:32:50;11.80;99.90
56256;DHT22;57229;51.432;-2.598;2023-02-01T03:35:54;11.80;99.90
56256;DHT22;57229;51.432;-2.598;2023-02-01T03:41:26;11.80;99.90
56256;DHT22;57229;51.432;-2.598;2023-02-01T03:46:30;11.80;99.90
56256;DHT22;57229;51.432;-2.598;2023-02-01T03:49:05;11.80;99.90
56256;DHT22;57229;51.432;-2.598;2023-02-01T03:51:32;11.80;99.90
56256;DHT22;57229;51.432;-2.598;2023-02-01T03:53:59;11.80;99.90
56256;DHT22;57229;51.432;-2.598;2023-02-01T03:56:27;11.80;99.90
56256;DHT22;57229;51.432;-2.598;2023-02-01T03:58:55;11.80;99.90
56256;DHT22;57229;51.432;-2.598;2023-02-01T04:01:26;11.80;99.90
56256;DHT22;57229;51.432;-2.598;2023-02-01T04:03:52;11.80;99.90
56256;DHT22;57229;51.432;-2.598;2023-02-01T04:06:17;11.80;99.90
56256;DHT22;57229;51.432;-2.598;2023-02-01T04:08:43;11.80;99.90
56256;DHT22;57229;51.432;-2.598;2023-02-01T04:11:09;11.80;99.90
56256;DHT22;57229;51.432;-2.598;2023-02-01T04:13:35;11.80;99.90
56256;DHT22;57229;51.432;-2.598;2023-02-01T04:16:00;11.80;99.90
56256;DHT22;57229;51.432;-2.598;2023-02-01T04:18:26;11.80;99.90
56256;DHT22;57229;51.432;-2.598;2023-02-01T04:20:51;11.80;99.90
56256;DHT22;57229;51.432;-2.598;2023-02-01T04:23:17;11.80;99.90
56256;DHT22;57229;51.432;-2.598;2023-02-01T04:25:43;11.80;99.90
56256;DHT22;57229;51.432;-2.598;2023-02-01T04:28:08;11.70;99.90
56256;DHT22;57229;51.432;-2.598;2023-02-01T04:30:34;11.70;99.90
56256;DHT22;57229;51.432;-2.598;2023-02-01T04:33:00;11.80;99.90
56256;DHT22;57229;51.432;-2.598;2023-02-01T04:35:26;11.80;99.90
56256;DHT22;57229;51.432;-2.598;2023-02-01T04:37:51;11.70;99.90
56256;DHT22;57229;51.432;-2.598;2023-02-01T04:40:17;11.80;99.90
56256;DHT22;57229;51.432;-2.598;2023-02-01T04:42:42;11.70;99.90
56256;DHT22;57229;51.432;-2.598;2023-02-01T04:45:08;11.70;99.90
56256;DHT22;57229;51.432;-2.598;2023-02-01T04:47:34;11.70;99.90
56256;DHT22;57229;51.432;-2.598;2023-02-01T04:50:00;11.70;99.90
56256;DHT22;57229;51.432;-2.598;2023-02-01T04:52:26;11.70;99.90
56256;DHT22;57229;51.432;-2.598;2023-02-01T04:54:52;11.80;99.90
56256;DHT22;57229;51.432;-2.598;2023-02-01T04:57:19;11.70;99.90
56256;DHT22;57229;51.432;-2.598;2023-02-01T04:59:45;11.70;99.90
56256;DHT22;57229;51.432;-2.598;2023-02-01T05:02:11;11.70;99.90
56256;DHT22;57229;51.432;-2.598;2023-02-01T05:04:36;11.70;99.90
56256;DHT22;57229;51.432;-2.598;2023-02-01T05:07:02;11.70;99.90
56256;DHT22;57229;51.432;-2.598;2023-02-01T05:09:28;11.70;99.90
56256;DHT22;57229;51.432;-2.598;2023-02-01T05:11:53;11.70;99.90
56256;DHT22;57229;51.432;-2.598;2023-02-01T05:14:37;11.70;99.90
56256;DHT22;57229;51.432;-2.598;2023-02-01T05:17:03;11.70;99.90
56256;DHT22;57229;51.432;-2.598;2023-02-01T05:19:28;11.70;99.90
56256;DHT22;57229;51.432;-2.598;2023-02-01T05:21:54;11.70;99.90
56256;DHT22;57229;51.432;-2.598;2023-02-01T05:24:20;11.70;99.90
56256;DHT22;57229;51.432;-2.598;2023-02-01T05:26:46;11.70;99.90
56256;DHT22;57229;51.432;-2.598;2023-02-01T05:29:13;11.70;99.90
56256;DHT22;57229;51.432;-2.598;2023-02-01T05:31:39;11.70;99.90
56256;DHT22;57229;51.432;-2.598;2023-02-01T05:34:05;11.70;99.90
56256;DHT22;57229;51.432;-2.598;2023-02-01T05:36:31;11.70;99.90
56256;DHT22;57229;51.432;-2.598;2023-02-01T05:38:57;11.70;99.90
56256;DHT22;57229;51.432;-2.598;2023-02-01T05:41:23;11.70;99.90
56256;DHT22;57229;51.432;-2.598;2023-02-01T05:43:49;11.70;99.90
56256;DHT22;57229;51.432;-2.598;2023-02-01T05:46:15;11.70;99.90
56256;DHT22;57229;51.432;-2.598;2023-02-01T05:48:41;11.70;99.90
56256;DHT22;57229;51.432;-2.598;2023-02-01T05:51:07;11.60;99.90
56256;DHT22;57229;51.432;-2.598;2023-02-01T05:53:33;11.60;99.90
56256;DHT22;57229;51.432;-2.598;2023-02-01T05:55:58;11.60;99.90
56256;DHT22;57229;51.432;-2.598;2023-02-01T05:58:24;11.60;99.90
56256;DHT22;57229;51.432;-2.598;2023-02-01T06:00:50;11.60;99.90
56256;DHT22;57229;51.432;-2.598;2023-02-01T06:03:16;11.60;99.90
56256;DHT22;57229;51.432;-2.598;2023-02-01T06:05:44;11.60;99.90
56256;DHT22;57229;51.432;-2.598;2023-02-01T06:08:10;11.60;99.90
56256;DHT22;57229;51.432;-2.598;2023-02-01T06:10:35;11.60;99.90
56256;DHT22;57229;51.432;-2.598;2023-02-01T06:13:01;11.60;99.90
56256;DHT22;57229;51.432;-2.598;2023-02-01T06:15:29;11.60;99.90
56256;DHT22;57229;51.432;-2.598;2023-02-01T06:17:54;11.60;99.90
56256;DHT22;57229;51.432;-2.598;2023-02-01T06:20:21;11.60;99.90
56256;DHT22;57229;51.432;-2.598;2023-02-01T06:22:46;11.60;99.90
56256;DHT22;57229;51.432;-2.598;2023-02-01T06:25:12;11.60;99.90
56256;DHT22;57229;51.432;-2.598;2023-02-01T06:27:38;11.60;99.90
56256;DHT22;57229;51.432;-2.598;2023-02-01T06:30:05;11.60;99.90
56256;DHT22;57229;51.432;-2.598;2023-02-01T06:32:31;11.60;99.90
56256;DHT22;57229;51.432;-2.598;2023-02-01T06:34:57;11.60;99.90
56256;DHT22;57229;51.432;-2.598;2023-02-01T06:37:24;11.60;99.90
56256;DHT22;57229;51.432;-2.598;2023-02-01T06:39:50;11.60;99.90
56256;DHT22;57229;51.432;-2.598;2023-02-01T06:42:16;11.60;99.90
56256;DHT22;57229;51.432;-2.598;2023-02-01T06:44:42;11.60;99.90
56256;DHT22;57229;51.432;-2.598;2023-02-01T06:47:08;11.60;99.90
56256;DHT22;57229;51.432;-2.598;2023-02-01T06:49:34;11.60;99.90
56256;DHT22;57229;51.432;-2.598;2023-02-01T06:51:59;11.50;99.90
56256;DHT22;57229;51.432;-2.598;2023-02-01T06:54:26;11.50;99.90
56256;DHT22;57229;51.432;-2.598;2023-02-01T06:56:52;11.50;99.90
56256;DHT22;57229;51.432;-2.598;2023-02-01T06:59:17;11.50;99.90
56256;DHT22;57229;51.432;-2.598;2023-02-01T07:01:43;11.50;99.90
56256;DHT22;57229;51.432;-2.598;2023-02-01T07:04:11;11.50;99.90
56256;DHT22;57229;51.432;-2.598;2023-02-01T07:06:37;11.50;99.90
56256;DHT22;57229;51.432;-2.598;2023-02-01T07:09:02;11.50;99.90
56256;DHT22;57229;51.432;-2.598;2023-02-01T07:11:28;11.50;99.90
56256;DHT22;57229;51.432;-2.598;2023-02-01T07:13:54;11.50;99.90
56256;DHT22;57229;51.432;-2.598;2023-02-01T07:16:20;11.50;99.90
56256;DHT22;57229;51.432;-2.598;2023-02-01T07:18:50;11.50;99.90
56256;DHT22;57229;51.432;-2.598;2023-02-01T07:21:16;11.50;99.90
56256;DHT22;57229;51.432;-2.598;2023-02-01T07:23:42;11.50;99.90
56256;DHT22;57229;51.432;-2.598;2023-02-01T07:26:10;11.50;99.90
56256;DHT22;57229;51.432;-2.598;2023-02-01T07:28:41;11.50;99.90
56256;DHT22;57229;51.432;-2.598;2023-02-01T07:31:09;11.50;99.90
56256;DHT22;57229;51.432;-2.598;2023-02-01T07:33:35;11.50;99.90
56256;DHT22;57229;51.432;-2.598;2023-02-01T07:36:03;11.50;99.90
56256;DHT22;57229;51.432;-2.598;2023-02-01T07:38:29;11.50;99.90
56256;DHT22;57229;51.432;-2.598;2023-02-01T07:41:00;11.50;99.90
56256;DHT22;57229;51.432;-2.598;2023-02-01T07:43:27;11.50;99.90
56256;DHT22;57229;51.432;-2.598;2023-02-01T07:45:54;11.50;99.90
56256;DHT22;57229;51.432;-2.598;2023-02-01T07:48:38;11.50;99.90
56256;DHT22;57229;51.432;-2.598;2023-02-01T07:51:07;11.50;99.90
56256;DHT22;57229;51.432;-2.598;2023-02-01T07:53:34;11.50;99.90
56256;DHT22;57229;51.432;-2.598;2023-02-01T07:56:00;11.50;99.90
56256;DHT22;57229;51.432;-2.598;2023-02-01T07:58:27;11.50;99.90
56256;DHT22;57229;51.432;-2.598;2023-02-01T08:00:52;11.50;99.90
56256;DHT22;57229;51.432;-2.598;2023-02-01T08:07:01;11.50;99.90
56256;DHT22;57229;51.432;-2.598;2023-02-01T08:09:28;11.50;99.90
56256;DHT22;57229;51.432;-2.598;2023-02-01T08:11:57;11.50;99.90
56256;DHT22;57229;51.432;-2.598;2023-02-01T08:14:24;11.50;99.90
56256;DHT22;57229;51.432;-2.598;2023-02-01T08:16:54;11.40;99.90
56256;DHT22;57229;51.432;-2.598;2023-02-01T08:23:07;11.50;99.90
56256;DHT22;57229;51.432;-2.598;2023-02-01T08:28:37;11.50;99.90
56256;DHT22;57229;51.432;-2.598;2023-02-01T08:31:11;11.50;99.90
56256;DHT22;57229;51.432;-2.598;2023-02-01T08:33:49;11.50;99.90
56256;DHT22;57229;51.432;-2.598;2023-02-01T08:40:09;11.50;99.90
56256;DHT22;57229;51.432;-2.598;2023-02-01T08:42:39;11.50;99.90
56256;DHT22;57229;51.432;-2.598;2023-02-01T08:48:51;11.50;99.90
56256;DHT22;57229;51.432;-2.598;2023-02-01T08:51:46;11.50;99.90
56256;DHT22;57229;51.432;-2.598;2023-02-01T09:01:13;11.50;99.90
56256;DHT22;57229;51.432;-2.598;2023-02-01T09:03:44;11.50;99.90
56256;DHT22;57229;51.432;-2.598;2023-02-01T09:06:13;11.50;99.90
56256;DHT22;57229;51.432;-2.598;2023-02-01T09:08:40;11.60;99.90
56256;DHT22;57229;51.432;-2.598;2023-02-01T09:11:50;11.50;99.90
56256;DHT22;57229;51.432;-2.598;2023-02-01T09:14:16;11.50;99.90
56256;DHT22;57229;51.432;-2.598;2023-02-01T09:16:42;11.60;99.90
56256;DHT22;57229;51.432;-2.598;2023-02-01T09:19:09;11.50;99.90
56256;DHT22;57229;51.432;-2.598;2023-02-01T09:21:58;11.60;99.90
56256;DHT22;57229;51.432;-2.598;2023-02-01T09:24:24;11.60;99.90
56256;DHT22;57229;51.432;-2.598;2023-02-01T09:27:09;11.60;99.90
56256;DHT22;57229;51.432;-2.598;2023-02-01T09:29:38;11.60;99.90
56256;DHT22;57229;51.432;-2.598;2023-02-01T09:32:43;11.60;99.90
56256;DHT22;57229;51.432;-2.598;2023-02-01T09:38:43;11.60;99.90
56256;DHT22;57229;51.432;-2.598;2023-02-01T09:45:06;11.60;99.90
56256;DHT22;57229;51.432;-2.598;2023-02-01T09:47:36;11.60;99.90
56256;DHT22;57229;51.432;-2.598;2023-02-01T09:50:11;11.60;99.90
56256;DHT22;57229;51.432;-2.598;2023-02-01T09:59:15;11.70;99.90
56256;DHT22;57229;51.432;-2.598;2023-02-01T10:04:40;11.70;99.90
56256;DHT22;57229;51.432;-2.598;2023-02-01T10:10:58;11.80;99.90
56256;DHT22;57229;51.432;-2.598;2023-02-01T10:13:54;11.80;99.90
56256;DHT22;57229;51.432;-2.598;2023-02-01T10:19:23;11.80;99.90
56256;DHT22;57229;51.432;-2.598;2023-02-01T10:21:57;11.90;99.90
56256;DHT22;57229;51.432;-2.598;2023-02-01T10:24:44;12.00;99.90
56256;DHT22;57229;51.432;-2.598;2023-02-01T10:27:32;12.00;99.90
56256;DHT22;57229;51.432;-2.598;2023-02-01T10:30:37;12.20;99.90
56256;DHT22;57229;51.432;-2.598;2023-02-01T10:33:26;12.30;99.90
56256;DHT22;57229;51.432;-2.598;2023-02-01T10:36:13;12.50;99.90
56256;DHT22;57229;51.432;-2.598;2023-02-01T10:38:43;12.80;99.90
56256;DHT22;57229;51.432;-2.598;2023-02-01T10:41:17;13.00;99.90
56256;DHT22;57229;51.432;-2.598;2023-02-01T10:51:00;13.80;99.00
56256;DHT22;57229;51.432;-2.598;2023-02-01T10:54:08;13.90;98.50
56256;DHT22;57229;51.432;-2.598;2023-02-01T11:00:18;14.00;97.90
56256;DHT22;57229;51.432;-2.598;2023-02-01T11:12:38;13.50;98.50
56256;DHT22;57229;51.432;-2.598;2023-02-01T11:15:44;13.60;98.70
56256;DHT22;57229;51.432;-2.598;2023-02-01T11:18:17;13.70;98.10
56256;DHT22;57229;51.432;-2.598;2023-02-01T11:20:44;13.70;98.10
56256;DHT22;57229;51.432;-2.598;2023-02-01T11:23:15;14.00;97.90
56256;DHT22;57229;51.432;-2.598;2023-02-01T11:25:50;14.30;97.30
56256;DHT22;57229;51.432;-2.598;2023-02-01T11:28:16;14.70;96.30
56256;DHT22;57229;51.432;-2.598;2023-02-01T11:31:11;14.80;95.80
56256;DHT22;57229;51.432;-2.598;2023-02-01T11:37:17;14.20;96.80
56256;DHT22;57229;51.432;-2.598;2023-02-01T11:39:57;13.90;97.10
56256;DHT22;57229;51.432;-2.598;2023-02-01T11:42:23;13.60;97.30
56256;DHT22;57229;51.432;-2.598;2023-02-01T11:44:48;13.40;97.80
56256;DHT22;57229;51.432;-2.598;2023-02-01T11:47:27;13.20;98.00
56256;DHT22;57229;51.432;-2.598;2023-02-01T11:49:56;13.10;98.30
56256;DHT22;57229;51.432;-2.598;2023-02-01T12:00:59;12.70;99.30
56256;DHT22;57229;51.432;-2.598;2023-02-01T12:03:57;12.70;99.50
56256;DHT22;57229;51.432;-2.598;2023-02-01T12:06:54;12.60;99.90
56256;DHT22;57229;51.432;-2.598;2023-02-01T12:13:19;12.60;99.90
56256;DHT22;57229;51.432;-2.598;2023-02-01T12:16:17;12.60;99.90
56256;DHT22;57229;51.432;-2.598;2023-02-01T12:22:00;12.50;99.90
56256;DHT22;57229;51.432;-2.598;2023-02-01T12:30:48;12.40;99.90
56256;DHT22;57229;51.432;-2.598;2023-02-01T12:46:41;12.30;99.90
56256;DHT22;57229;51.432;-2.598;2023-02-01T12:49:32;12.30;99.90
56256;DHT22;57229;51.432;-2.598;2023-02-01T12:52:16;12.30;99.90
56256;DHT22;57229;51.432;-2.598;2023-02-01T12:54:52;12.30;99.90
56256;DHT22;57229;51.432;-2.598;2023-02-01T12:57:36;12.30;99.90
56256;DHT22;57229;51.432;-2.598;2023-02-01T13:08:28;12.20;99.90
56256;DHT22;57229;51.432;-2.598;2023-02-01T13:11:09;12.20;99.90
56256;DHT22;57229;51.432;-2.598;2023-02-01T13:16:44;12.20;99.90
56256;DHT22;57229;51.432;-2.598;2023-02-01T13:23:18;12.10;99.90
56256;DHT22;57229;51.432;-2.598;2023-02-01T13:25:49;12.20;99.90
56256;DHT22;57229;51.432;-2.598;2023-02-01T13:39:46;12.10;99.90
56256;DHT22;57229;51.432;-2.598;2023-02-01T13:42:19;12.10;99.90
56256;DHT22;57229;51.432;-2.598;2023-02-01T13:45:28;12.10;99.90
56256;DHT22;57229;51.432;-2.598;2023-02-01T13:47:56;12.10;99.90
56256;DHT22;57229;51.432;-2.598;2023-02-01T13:50:32;12.10;99.90
56256;DHT22;57229;51.432;-2.598;2023-02-01T13:53:11;12.20;99.90
56256;DHT22;57229;51.432;-2.598;2023-02-01T13:55:41;12.20;99.90
56256;DHT22;57229;51.432;-2.598;2023-02-01T13:58:22;12.20;99.90
56256;DHT22;57229;51.432;-2.598;2023-02-01T14:00:49;12.30;99.90
56256;DHT22;57229;51.432;-2.598;2023-02-01T14:11:53;12.30;99.90
56256;DHT22;57229;51.432;-2.598;2023-02-01T14:19:21;12.40;99.90
56256;DHT22;57229;51.432;-2.598;2023-02-01T14:22:01;12.40;99.90
56256;DHT22;57229;51.432;-2.598;2023-02-01T14:24:50;12.40;99.90
56256;DHT22;57229;51.432;-2.598;2023-02-01T14:27:21;12.40;99.90
56256;DHT22;57229;51.432;-2.598;2023-02-01T14:29:57;12.60;99.90
56256;DHT22;57229;51.432;-2.598;2023-02-01T14:32:39;12.80;99.90
56256;DHT22;57229;51.432;-2.598;2023-02-01T14:35:18;13.20;99.40
56256;DHT22;57229;51.432;-2.598;2023-02-01T14:37:46;13.50;98.90
56256;DHT22;57229;51.432;-2.598;2023-02-01T14:40:26;13.90;98.30
56256;DHT22;57229;51.432;-2.598;2023-02-01T14:42:53;14.20;97.70
56256;DHT22;57229;51.432;-2.598;2023-02-01T15:04:12;13.80;97.70
56256;DHT22;57229;51.432;-2.598;2023-02-01T15:09:32;13.60;98.20
56256;DHT22;57229;51.432;-2.598;2023-02-01T15:12:16;13.50;98.20
56256;DHT22;57229;51.432;-2.598;2023-02-01T15:17:37;13.30;98.40
56256;DHT22;57229;51.432;-2.598;2023-02-01T15:20:15;13.20;98.60
56256;DHT22;57229;51.432;-2.598;2023-02-01T15:22:41;13.10;98.80
56256;DHT22;57229;51.432;-2.598;2023-02-01T15:25:31;13.00;98.90
56256;DHT22;57229;51.432;-2.598;2023-02-01T15:27:57;12.90;98.80
56256;DHT22;57229;51.432;-2.598;2023-02-01T15:30:29;12.80;99.00
56256;DHT22;57229;51.432;-2.598;2023-02-01T15:33:16;12.70;98.90
56256;DHT22;57229;51.432;-2.598;2023-02-01T15:35:44;12.70;98.90
56256;DHT22;57229;51.432;-2.598;2023-02-01T15:46:38;12.60;99.50
56256;DHT22;57229;51.432;-2.598;2023-02-01T15:49:05;12.50;99.60
56256;DHT22;57229;51.432;-2.598;2023-02-01T15:51:44;12.50;99.70
56256;DHT22;57229;51.432;-2.598;2023-02-01T15:54:22;12.40;99.80
56256;DHT22;57229;51.432;-2.598;2023-02-01T15:56:53;12.40;99.90
56256;DHT22;57229;51.432;-2.598;2023-02-01T15:59:43;12.40;99.90
56256;DHT22;57229;51.432;-2.598;2023-02-01T16:04:50;12.30;99.90
56256;DHT22;57229;51.432;-2.598;2023-02-01T16:07:32;12.30;99.90
56256;DHT22;57229;51.432;-2.598;2023-02-01T16:10:00;12.30;99.90
56256;DHT22;57229;51.432;-2.598;2023-02-01T16:12:46;12.20;99.90
56256;DHT22;57229;51.432;-2.598;2023-02-01T16:15:12;12.20;99.90
56256;DHT22;57229;51.432;-2.598;2023-02-01T16:17:38;12.20;99.90
56256;DHT22;57229;51.432;-2.598;2023-02-01T16:20:04;12.20;99.90
56256;DHT22;57229;51.432;-2.598;2023-02-01T16:22:30;12.10;99.90
56256;DHT22;57229;51.432;-2.598;2023-02-01T16:24:55;12.10;99.90
56256;DHT22;57229;51.432;-2.598;2023-02-01T16:27:22;12.10;99.90
56256;DHT22;57229;51.432;-2.598;2023-02-01T16:29:48;12.10;99.90
56256;DHT22;57229;51.432;-2.598;2023-02-01T16:32:19;12.10;99.90
56256;DHT22;57229;51.432;-2.598;2023-02-01T16:34:45;12.10;99.90
56256;DHT22;57229;51.432;-2.598;2023-02-01T16:37:13;12.00;99.90
56256;DHT22;57229;51.432;-2.598;2023-02-01T16:39:40;12.00;99.90
56256;DHT22;57229;51.432;-2.598;2023-02-01T16:42:13;12.00;99.90
56256;DHT22;57229;51.432;-2.598;2023-02-01T16:44:39;12.00;99.90
56256;DHT22;57229;51.432;-2.598;2023-02-01T16:47:16;12.00;99.90
56256;DHT22;57229;51.432;-2.598;2023-02-01T16:49:43;12.00;99.90
56256;DHT22;57229;51.432;-2.598;2023-02-01T16:52:22;12.00;99.90
56256;DHT22;57229;51.432;-2.598;2023-02-01T16:54:48;12.00;99.90
56256;DHT22;57229;51.432;-2.598;2023-02-01T16:57:16;12.00;99.90
56256;DHT22;57229;51.432;-2.598;2023-02-01T16:59:43;12.00;99.90
56256;DHT22;57229;51.432;-2.598;2023-02-01T17:02:14;12.00;99.90
56256;DHT22;57229;51.432;-2.598;2023-02-01T17:04:40;11.90;99.90
56256;DHT22;57229;51.432;-2.598;2023-02-01T17:07:06;11.90;99.90
56256;DHT22;57229;51.432;-2.598;2023-02-01T17:09:38;11.90;99.90
56256;DHT22;57229;51.432;-2.598;2023-02-01T17:12:04;11.90;99.90
56256;DHT22;57229;51.432;-2.598;2023-02-01T17:14:38;11.90;99.90
56256;DHT22;57229;51.432;-2.598;2023-02-01T17:17:04;11.90;99.90
56256;DHT22;57229;51.432;-2.598;2023-02-01T17:19:32;11.90;99.90
56256;DHT22;57229;51.432;-2.598;2023-02-01T17:21:57;11.90;99.90
56256;DHT22;57229;51.432;-2.598;2023-02-01T17:24:26;11.90;99.90
56256;DHT22;57229;51.432;-2.598;2023-02-01T17:26:54;11.80;99.90
56256;DHT22;57229;51.432;-2.598;2023-02-01T17:29:20;11.80;99.90
56256;DHT22;57229;51.432;-2.598;2023-02-01T17:31:49;11.80;99.90
56256;DHT22;57229;51.432;-2.598;2023-02-01T17:34:16;11.80;99.90
56256;DHT22;57229;51.432;-2.598;2023-02-01T17:36:44;11.80;99.90
56256;DHT22;57229;51.432;-2.598;2023-02-01T17:39:10;11.80;99.90
56256;DHT22;57229;51.432;-2.598;2023-02-01T17:41:56;11.80;99.90
56256;DHT22;57229;51.432;-2.598;2023-02-01T17:44:21;11.80;99.90
56256;DHT22;57229;51.432;-2.598;2023-02-01T17:46:47;11.80;99.90
56256;DHT22;57229;51.432;-2.598;2023-02-01T17:49:13;11.80;99.90
56256;DHT22;57229;51.432;-2.598;2023-02-01T17:51:38;11.80;99.90
56256;DHT22;57229;51.432;-2.598;2023-02-01T17:54:12;11.80;99.90
56256;DHT22;57229;51.432;-2.598;2023-02-01T17:56:38;11.80;99.90
56256;DHT22;57229;51.432;-2.598;2023-02-01T17:59:04;11.70;99.90
56256;DHT22;57229;51.432;-2.598;2023-02-01T18:01:30;11.70;99.90
56256;DHT22;57229;51.432;-2.598;2023-02-01T18:03:55;11.70;99.90
56256;DHT22;57229;51.432;-2.598;2023-02-01T18:06:23;11.70;99.90
56256;DHT22;57229;51.432;-2.598;2023-02-01T18:08:50;11.80;99.90
56256;DHT22;57229;51.432;-2.598;2023-02-01T18:11:18;11.70;99.90
56256;DHT22;57229;51.432;-2.598;2023-02-01T18:13:45;11.70;99.90
56256;DHT22;57229;51.432;-2.598;2023-02-01T18:18:42;11.70;99.90
56256;DHT22;57229;51.432;-2.598;2023-02-01T18:21:08;11.70;99.90
56256;DHT22;57229;51.432;-2.598;2023-02-01T18:23:34;11.70;99.90
56256;DHT22;57229;51.432;-2.598;2023-02-01T18:25:59;11.70;99.90
56256;DHT22;57229;51.432;-2.598;2023-02-01T18:28:25;11.70;99.90
56256;DHT22;57229;51.432;-2.598;2023-02-01T18:30:51;11.70;99.90
56256;DHT22;57229;51.432;-2.598;2023-02-01T18:33:18;11.70;99.90
56256;DHT22;57229;51.432;-2.598;2023-02-01T18:35:44;11.70;99.90
56256;DHT22;57229;51.432;-2.598;2023-02-01T18:38:10;11.70;99.90
56256;DHT22;57229;51.432;-2.598;2023-02-01T18:41:07;11.70;99.90
56256;DHT22;57229;51.432;-2.598;2023-02-01T18:43:34;11.70;99.90
56256;DHT22;57229;51.432;-2.598;2023-02-01T18:46:01;11.70;99.90
56256;DHT22;57229;51.432;-2.598;2023-02-01T18:49:17;11.70;99.90
56256;DHT22;57229;51.432;-2.598;2023-02-01T18:51:27;11.70;99.90
56256;DHT22;57229;51.432;-2.598;2023-02-01T18:53:53;11.70;99.90
56256;DHT22;57229;51.432;-2.598;2023-02-01T18:56:19;11.70;99.90
56256;DHT22;57229;51.432;-2.598;2023-02-01T18:58:45;11.70;99.90
56256;DHT22;57229;51.432;-2.598;2023-02-01T19:01:16;11.70;99.90
56256;DHT22;57229;51.432;-2.598;2023-02-01T19:03:43;11.70;99.90
56256;DHT22;57229;51.432;-2.598;2023-02-01T19:06:09;11.70;99.90
56256;DHT22;57229;51.432;-2.598;2023-02-01T19:08:35;11.70;99.90
56256;DHT22;57229;51.432;-2.598;2023-02-01T19:11:05;11.70;99.90
56256;DHT22;57229;51.432;-2.598;2023-02-01T19:13:33;11.70;99.90
56256;DHT22;57229;51.432;-2.598;2023-02-01T19:16:08;11.70;99.90
56256;DHT22;57229;51.432;-2.598;2023-02-01T19:18:34;11.80;99.90
56256;DHT22;57229;51.432;-2.598;2023-02-01T19:21:08;11.70;99.90
56256;DHT22;57229;51.432;-2.598;2023-02-01T19:23:34;11.70;99.90